Airport View

Enter AWOS ICAO identifier for current METAR.

ex. KFNL

KBEC 190655Z AUTO 35011G18KT 10SM SCT049 09/03 A3002 RMK AO2 T00900030

19 Apr 2019 07:08

Frequency: 119.45

Phone: 316-515-7116

Other Area AWOS: KAAO - KIAB - K3AU - K1K1

TAF KIAB 190200Z 1902/2008 34015G25KT 9999 BKN050 QNH2991INS BECMG 1908/1909 34012KT 9999 SCT050 QNH2994INS BECMG 1914/1915 35020G25KT 9999 SKC 510053 QNH3004INS BECMG 1923/1924 VRB06KT 9999 SKC QNH3001INS TX17/1921Z TN06/1912Z